createdAt,value
2023-01-10T00:00:05.887Z,100335.13
2023-01-10T00:02:36.120Z,100339.44
2023-01-10T00:05:06.706Z,100341.13
2023-01-10T00:07:36.960Z,100333.34
2023-01-10T00:10:07.461Z,100347.13
2023-01-10T00:12:56.227Z,100342.84
2023-01-10T00:15:26.849Z,100348.88
2023-01-10T00:17:57.032Z,100361.78
2023-01-10T00:20:27.128Z,100359.22
2023-01-10T00:22:57.819Z,100352.28
2023-01-10T00:25:28.117Z,100371.22
2023-01-10T00:28:04.983Z,100381.53
2023-01-10T00:30:41.446Z,100384.16
2023-01-10T00:33:19.828Z,100402.22
2023-01-10T00:35:52.619Z,100397.03
2023-01-10T00:38:24.807Z,100400.44
2023-01-10T00:40:54.995Z,100403.84
2023-01-10T00:43:43.847Z,100411.63
2023-01-10T00:46:14.161Z,100415.94
2023-01-10T00:48:44.374Z,100403.84
2023-01-10T00:51:14.502Z,100413.38
2023-01-10T00:53:44.817Z,100422.84
2023-01-10T00:56:14.984Z,100428.84
2023-01-10T00:58:45.149Z,100428.84
2023-01-10T01:01:15.333Z,100432.28
2023-01-10T01:03:45.559Z,100434.84
2023-01-10T01:06:15.743Z,100435.75
2023-01-10T01:08:46.070Z,100443.50
2023-01-10T01:11:16.751Z,100441.75
2023-01-10T01:13:46.953Z,100452.94
2023-01-10T01:16:17.713Z,100453.75
2023-01-10T01:18:47.939Z,100458.94
2023-01-10T01:21:18.362Z,100468.44
2023-01-10T01:27:29.095Z,100471.06
2023-01-10T01:29:59.291Z,100483.06
2023-01-10T01:32:29.481Z,100481.34
2023-01-10T01:35:00.042Z,100497.72
2023-01-10T01:37:30.253Z,100496.84
2023-01-10T01:40:00.510Z,100491.69
2023-01-10T01:42:33.204Z,100501.25
2023-01-10T01:45:31.072Z,100495.19
2023-01-10T01:48:09.842Z,100499.53
2023-01-10T01:51:20.887Z,100508.16
2023-01-10T01:54:00.148Z,100506.41
2023-01-10T01:56:37.352Z,100515.84
2023-01-10T01:59:14.613Z,100511.53
2023-01-10T02:01:48.044Z,100514.91
2023-01-10T02:04:27.251Z,100510.59
2023-01-10T02:06:59.532Z,100513.25
2023-01-10T02:09:44.179Z,100511.50
2023-01-10T02:12:16.044Z,100515.84
2023-01-10T02:14:49.604Z,100514.94
2023-01-10T02:17:19.702Z,100514.91
2023-01-10T02:20:21.997Z,100522.66
2023-01-10T02:23:23.282Z,100520.88
2023-01-10T02:26:05.450Z,100531.16
2023-01-10T02:28:48.065Z,100535.41
2023-01-10T02:31:43.698Z,100535.38
2023-01-10T02:34:16.937Z,100522.38
2023-01-10T02:37:06.052Z,100524.03
2023-01-10T02:39:48.240Z,100543.78
2023-01-10T02:42:31.774Z,100546.31
2023-01-10T02:45:13.010Z,100547.13
2023-01-10T02:47:43.328Z,100541.00
2023-01-10T02:50:42.032Z,100547.00
2023-01-10T02:53:18.911Z,100540.03
2023-01-10T02:56:18.803Z,100559.78
2023-01-10T02:59:20.337Z,100560.59
2023-01-10T03:01:59.399Z,100559.66
2023-01-10T03:04:29.632Z,100567.38
2023-01-10T03:07:15.764Z,100558.69
2023-01-10T03:09:59.182Z,100581.03
2023-01-10T03:12:38.382Z,100583.56
2023-01-10T03:15:12.284Z,100580.94
2023-01-10T03:17:46.648Z,100589.53
2023-01-10T03:20:19.914Z,100592.91
2023-01-10T03:22:53.087Z,100598.91
2023-01-10T03:25:28.792Z,100596.28
2023-01-10T03:28:05.267Z,100618.56
2023-01-10T03:30:44.118Z,100612.53
2023-01-10T03:33:19.819Z,100623.72
2023-01-10T03:36:19.066Z,100626.38
2023-01-10T03:39:14.693Z,100631.59
2023-01-10T03:42:10.349Z,100632.41
2023-01-10T03:44:58.993Z,100631.63
2023-01-10T03:47:42.542Z,100643.66
2023-01-10T03:50:18.801Z,100644.53
2023-01-10T03:52:48.986Z,100640.22
2023-01-10T03:55:23.327Z,100654.91
2023-01-10T03:57:53.733Z,100649.72
2023-01-10T04:00:24.562Z,100641.91
2023-01-10T04:02:55.945Z,100658.31
2023-01-10T04:05:26.761Z,100666.91
2023-01-10T04:07:57.091Z,100663.50
2023-01-10T04:10:29.962Z,100670.34
2023-01-10T04:13:01.650Z,100688.47
2023-01-10T04:15:31.904Z,100680.75
2023-01-10T04:18:02.126Z,100695.34
2023-01-10T04:20:32.241Z,100705.72
2023-01-10T04:23:02.379Z,100709.97
2023-01-10T04:25:32.554Z,100704.81
2023-01-10T04:28:02.709Z,100709.97
2023-01-10T04:30:32.866Z,100714.31
2023-01-10T04:33:02.942Z,100722.91
2023-01-10T04:35:33.223Z,100722.03
2023-01-10T04:38:03.458Z,100731.50
2023-01-10T04:40:33.678Z,100732.38
2023-01-10T04:43:03.836Z,100743.53
2023-01-10T04:45:34.195Z,100750.41
2023-01-10T04:48:04.664Z,100754.69
2023-01-10T04:50:34.843Z,100750.34
2023-01-10T04:53:04.933Z,100759.78
2023-01-10T04:55:35.464Z,100772.81
2023-01-10T04:58:05.679Z,100773.63
2023-01-10T05:00:35.871Z,100762.41
2023-01-10T05:03:06.179Z,100774.50
2023-01-10T05:05:36.404Z,100792.63
2023-01-10T05:08:06.590Z,100784.03
2023-01-10T05:10:36.686Z,100792.72
2023-01-10T05:13:06.922Z,100784.06
2023-01-10T05:15:37.014Z,100791.94
2023-01-10T05:18:07.200Z,100794.50
2023-01-10T05:20:37.347Z,100798.78
2023-01-10T05:23:07.522Z,100798.84
2023-01-10T05:25:37.761Z,100802.31
2023-01-10T05:28:07.939Z,100807.44
2023-01-10T05:30:38.115Z,100813.50
2023-01-10T05:33:08.206Z,100816.91
2023-01-10T05:35:38.513Z,100822.97
2023-01-10T05:38:08.638Z,100824.72
2023-01-10T05:40:38.800Z,100830.75
2023-01-10T05:43:09.747Z,100841.13
2023-01-10T05:45:39.834Z,100851.44
2023-01-10T05:48:09.981Z,100835.78
2023-01-10T05:50:40.004Z,100850.56
2023-01-10T05:53:10.442Z,100840.16
2023-01-10T05:55:40.584Z,100867.00
2023-01-10T05:58:13.531Z,100840.09
2023-01-10T06:00:43.687Z,100863.50
2023-01-10T06:03:13.976Z,100866.09
2023-01-10T06:05:44.219Z,100873.88
2023-01-10T06:08:14.448Z,100883.38
2023-01-10T06:10:44.820Z,100878.91
2023-01-10T06:13:15.381Z,100899.72
2023-01-10T06:15:45.637Z,100901.41
2023-01-10T06:18:16.406Z,100897.88
2023-01-10T06:20:46.772Z,100914.38
2023-01-10T06:23:17.083Z,100923.75
2023-01-10T06:25:47.256Z,100920.31
2023-01-10T06:28:17.379Z,100934.19
2023-01-10T06:30:47.652Z,100935.00
2023-01-10T06:33:17.932Z,100941.81
2023-01-10T06:35:48.418Z,100944.41
2023-01-10T06:38:18.920Z,100947.03
2023-01-10T06:40:48.988Z,100950.41
2023-01-10T06:43:19.658Z,100949.56
2023-01-10T06:45:49.893Z,100959.88
2023-01-10T06:48:20.042Z,100954.81
2023-01-10T06:50:50.488Z,100961.66
2023-01-10T06:53:20.668Z,100957.41
2023-01-10T06:55:50.917Z,100961.69
2023-01-10T06:58:21.333Z,100971.19
2023-01-10T07:00:52.051Z,100973.81
2023-01-10T07:03:22.341Z,100978.13
2023-01-10T07:05:52.631Z,100977.22
2023-01-10T07:08:22.857Z,100982.38
2023-01-10T07:10:53.054Z,100981.47
2023-01-10T07:13:23.108Z,100988.31
2023-01-10T07:15:53.372Z,100983.09
2023-01-10T07:18:23.443Z,100996.09
2023-01-10T07:20:53.601Z,100999.53
2023-01-10T07:23:24.165Z,100999.50
2023-01-10T07:25:54.378Z,101012.53
2023-01-10T07:28:24.436Z,101015.97
2023-01-10T07:30:54.658Z,101019.34
2023-01-10T07:33:24.884Z,101013.22
2023-01-10T07:35:55.058Z,101027.97
2023-01-10T07:38:25.160Z,101026.28
2023-01-10T07:40:55.405Z,101031.47
2023-01-10T07:43:28.604Z,101035.81
2023-01-10T07:46:02.891Z,101036.66
2023-01-10T07:48:38.868Z,101042.75
2023-01-10T07:51:10.020Z,101044.50
2023-01-10T07:53:40.306Z,101048.81
2023-01-10T07:56:10.530Z,101059.13
2023-01-10T07:58:40.669Z,101060.81
2023-01-10T08:01:11.976Z,101072.84
2023-01-10T08:03:42.208Z,101078.13
2023-01-10T08:06:13.181Z,101077.25
2023-01-10T08:08:44.440Z,101086.72
2023-01-10T08:11:14.748Z,101082.41
2023-01-10T08:13:44.883Z,101103.16
2023-01-10T08:16:15.864Z,101105.69
2023-01-10T08:18:46.353Z,101100.47
2023-01-10T08:21:16.448Z,101095.38
2023-01-10T08:23:46.634Z,101105.69
2023-01-10T08:26:16.813Z,101112.63
2023-01-10T08:28:47.026Z,101114.34
2023-01-10T08:31:18.392Z,101115.34
2023-01-10T08:33:48.740Z,101118.00
2023-01-10T08:36:20.863Z,101104.13
2023-01-10T08:38:51.363Z,101116.34
2023-01-10T08:41:21.514Z,101125.09
2023-01-10T08:43:52.739Z,101126.00
2023-01-10T08:46:39.283Z,101126.00
2023-01-10T08:49:10.117Z,101135.63
2023-01-10T08:51:43.047Z,101151.16
2023-01-10T08:54:13.291Z,101146.91
2023-01-10T08:56:43.367Z,101162.53
2023-01-10T08:59:13.621Z,101157.38
2023-01-10T09:01:43.795Z,101165.22
2023-01-10T09:04:14.061Z,101171.28
2023-01-10T09:06:44.147Z,101155.69
2023-01-10T09:09:14.345Z,101155.69
2023-01-10T09:11:44.474Z,101170.47
2023-01-10T09:14:15.545Z,101179.19
2023-01-10T09:16:46.412Z,101180.03
2023-01-10T09:19:16.521Z,101193.03
2023-01-10T09:21:46.655Z,101195.63
2023-01-10T09:24:16.906Z,101205.00
2023-01-10T09:26:47.110Z,101200.66
2023-01-10T09:29:17.403Z,101197.31
2023-01-10T09:31:48.683Z,101204.25
2023-01-10T09:34:19.084Z,101208.63
2023-01-10T09:36:49.788Z,101203.47
2023-01-10T09:39:21.416Z,101202.72
2023-01-10T09:42:12.187Z,101206.25
2023-01-10T09:45:17.877Z,101203.75
2023-01-10T09:48:10.310Z,101196.88
2023-01-10T09:51:03.427Z,101201.25
2023-01-10T09:53:37.330Z,101207.25
2023-01-10T09:56:13.582Z,101217.66
2023-01-10T09:58:45.126Z,101231.41
2023-01-10T10:01:19.819Z,101239.16
2023-01-10T10:04:05.933Z,101234.66
2023-01-10T10:06:36.108Z,101236.34
2023-01-10T10:09:06.297Z,101232.81
2023-01-10T10:11:55.813Z,101238.06
2023-01-10T10:14:34.231Z,101232.84
2023-01-10T10:17:19.636Z,101234.63
2023-01-10T10:20:17.459Z,101238.06
2023-01-10T10:23:04.742Z,101238.94
2023-01-10T10:25:40.881Z,101249.38
2023-01-10T10:28:54.015Z,101252.84
2023-01-10T10:31:36.500Z,101245.91
2023-01-10T10:34:36.884Z,101246.78
2023-01-10T10:37:17.703Z,101245.00
2023-01-10T10:40:18.898Z,101241.59
2023-01-10T10:42:53.063Z,101242.53
2023-01-10T10:45:47.197Z,101242.53
2023-01-10T10:48:29.558Z,101245.91
2023-01-10T10:50:59.671Z,101256.31
2023-01-10T10:53:33.013Z,101253.72
2023-01-10T10:56:06.424Z,101262.38
2023-01-10T10:58:38.759Z,101262.38
2023-01-10T11:01:14.261Z,101272.00
2023-01-10T11:04:10.435Z,101263.38
2023-01-10T11:06:48.819Z,101263.44
2023-01-10T11:09:43.068Z,101261.75
2023-01-10T11:12:18.888Z,101260.00
2023-01-10T11:14:52.221Z,101259.13
2023-01-10T11:17:28.680Z,101262.66
2023-01-10T11:20:00.750Z,101261.94
2023-01-10T11:22:38.828Z,101259.31
2023-01-10T11:25:23.802Z,101262.75
2023-01-10T11:27:58.081Z,101274.09
2023-01-10T11:30:31.410Z,101273.28
2023-01-10T11:33:04.817Z,101271.56
2023-01-10T11:35:41.540Z,101276.94
2023-01-10T11:38:17.343Z,101273.63
2023-01-10T11:40:57.279Z,101265.13
2023-01-10T11:43:34.086Z,101279.06
2023-01-10T11:46:14.989Z,101262.59
2023-01-10T11:49:05.465Z,101283.50
2023-01-10T11:51:45.454Z,101286.13
2023-01-10T11:54:25.211Z,101291.28
2023-01-10T11:56:59.617Z,101294.84
2023-01-10T11:59:30.345Z,101297.41
2023-01-10T12:02:05.298Z,101302.63
2023-01-10T12:04:42.117Z,101298.31
2023-01-10T12:07:12.622Z,101295.72
2023-01-10T12:09:45.292Z,101303.53
2023-01-10T12:12:29.510Z,101311.38
2023-01-10T12:15:20.646Z,101306.28
2023-01-10T12:17:51.620Z,101314.22
2023-01-10T12:20:22.924Z,101310.97
2023-01-10T12:23:08.749Z,101309.47
2023-01-10T12:25:42.170Z,101307.97
2023-01-10T12:28:22.455Z,101311.22
2023-01-10T12:30:55.436Z,101316.06
2023-01-10T12:33:34.210Z,101317.25
2023-01-10T12:36:12.978Z,101324.22
2023-01-10T12:39:04.008Z,101341.31
2023-01-10T12:42:01.839Z,101337.59
2023-01-10T12:44:45.869Z,101338.19
2023-01-10T12:47:32.767Z,101349.22
2023-01-10T12:50:13.645Z,101350.78
2023-01-10T12:53:08.473Z,101346.31
2023-01-10T12:55:45.435Z,101347.88
2023-01-10T12:58:38.144Z,101345.19
2023-01-10T13:01:14.907Z,101358.00
2023-01-10T13:03:46.899Z,101354.44
2023-01-10T13:06:29.434Z,101358.72
2023-01-10T13:09:08.335Z,101376.81
2023-01-10T13:11:53.940Z,101381.00
2023-01-10T13:14:39.743Z,101378.31
2023-01-10T13:17:29.061Z,101380.09
2023-01-10T13:20:17.298Z,101379.19
2023-01-10T13:22:58.934Z,101379.16
2023-01-10T13:25:38.209Z,101383.47
2023-01-10T13:28:22.792Z,101383.50
2023-01-10T13:30:56.048Z,101379.16
2023-01-10T13:33:30.224Z,101380.91
2023-01-10T13:36:19.504Z,101385.19
2023-01-10T13:38:52.173Z,101386.88
2023-01-10T13:41:42.355Z,101388.63
2023-01-10T13:44:14.712Z,101404.22
2023-01-10T13:46:50.824Z,101393.78
2023-01-10T13:49:39.826Z,101399.72
2023-01-10T13:52:31.624Z,101406.50
2023-01-10T13:55:20.573Z,101406.34
2023-01-10T13:57:53.958Z,101403.56
2023-01-10T14:00:47.578Z,101410.31
2023-01-10T14:03:43.714Z,101429.16
2023-01-10T14:06:13.965Z,101414.34
2023-01-10T14:08:54.835Z,101417.59
2023-01-10T14:11:33.710Z,101424.31
2023-01-10T14:14:04.017Z,101424.22
2023-01-10T14:16:38.329Z,101428.56
2023-01-10T14:19:29.373Z,101404.94
2023-01-10T14:22:01.929Z,101432.75
2023-01-10T14:24:41.748Z,101433.50
2023-01-10T14:27:16.252Z,101429.13
2023-01-10T14:29:51.593Z,101433.38
2023-01-10T14:32:38.676Z,101441.16
2023-01-10T14:35:15.738Z,101450.56
2023-01-10T14:37:57.001Z,101453.13
2023-01-10T14:40:44.788Z,101450.47
2023-01-10T14:43:26.643Z,101458.28
2023-01-10T14:46:01.606Z,101456.44
2023-01-10T14:48:51.380Z,101467.75
2023-01-10T14:51:30.103Z,101472.03
2023-01-10T14:54:11.379Z,101475.34
2023-01-10T14:56:47.019Z,101476.16
2023-01-10T14:59:34.380Z,101490.69
2023-01-10T15:02:13.672Z,101491.19
2023-01-10T15:05:09.838Z,101491.88
2023-01-10T15:07:39.986Z,101484.88
2023-01-10T15:10:32.960Z,101491.75
2023-01-10T15:13:06.378Z,101480.44
2023-01-10T15:15:38.654Z,101495.94
2023-01-10T15:18:33.393Z,101493.19
2023-01-10T15:21:04.593Z,101487.81
2023-01-10T15:23:43.261Z,101504.19
2023-01-10T15:26:25.690Z,101505.00
2023-01-10T15:29:25.225Z,101513.59
2023-01-10T15:32:03.554Z,101509.19
2023-01-10T15:34:34.047Z,101518.66
2023-01-10T15:37:04.793Z,101517.66
2023-01-10T15:39:39.517Z,101523.66
2023-01-10T15:42:12.365Z,101519.28
2023-01-10T15:44:52.751Z,101532.97
2023-01-10T15:47:48.793Z,101532.28
2023-01-10T15:50:32.223Z,101522.75
2023-01-10T15:53:09.359Z,101526.03
2023-01-10T15:55:47.857Z,101535.53
2023-01-10T15:58:32.951Z,101544.97
2023-01-10T16:01:04.752Z,101544.97
2023-01-10T16:03:37.407Z,101546.72
2023-01-10T16:06:10.066Z,101541.50
2023-01-10T16:08:40.358Z,101541.56
2023-01-10T16:11:39.792Z,101545.94
2023-01-10T16:14:10.049Z,101546.72
2023-01-10T16:16:40.444Z,101559.81
2023-01-10T16:19:11.155Z,101555.53
2023-01-10T16:21:49.579Z,101557.19
2023-01-10T16:24:25.598Z,101564.94
2023-01-10T16:26:58.092Z,101564.06
2023-01-10T16:29:28.621Z,101554.53
2023-01-10T16:31:59.043Z,101558.06
2023-01-10T16:34:30.987Z,101564.88
2023-01-10T16:37:01.107Z,101564.06
2023-01-10T16:39:31.218Z,101569.22
2023-01-10T16:42:19.692Z,101575.34
2023-01-10T16:44:50.063Z,101574.56
2023-01-10T16:47:20.195Z,101573.69
2023-01-10T16:49:50.299Z,101587.56
2023-01-10T16:52:20.411Z,101585.84
2023-01-10T16:54:50.545Z,101595.38
2023-01-10T16:57:20.866Z,101589.25
2023-01-10T16:59:51.039Z,101589.22
2023-01-10T17:02:21.996Z,101594.41
2023-01-10T17:04:52.198Z,101595.34
2023-01-10T17:07:22.368Z,101597.06
2023-01-10T17:09:52.483Z,101603.88
2023-01-10T17:12:22.879Z,101617.66
2023-01-10T17:14:53.387Z,101612.50
2023-01-10T17:17:23.465Z,101605.66
2023-01-10T17:19:53.558Z,101610.84
2023-01-10T17:22:23.877Z,101604.84
2023-01-10T17:24:54.152Z,101604.13
2023-01-10T17:27:24.296Z,101602.34
2023-01-10T17:29:54.471Z,101605.78
2023-01-10T17:32:24.575Z,101615.38
2023-01-10T17:34:54.777Z,101613.69
2023-01-10T17:37:25.048Z,101614.56
2023-01-10T17:39:55.362Z,101608.50
2023-01-10T17:42:26.130Z,101619.75
2023-01-10T17:44:56.813Z,101603.41
2023-01-10T17:47:27.051Z,101623.25
2023-01-10T17:49:57.667Z,101618.81
2023-01-10T17:52:27.890Z,101604.06
2023-01-10T17:54:59.574Z,101611.06
2023-01-10T17:57:30.063Z,101612.81
2023-01-10T18:00:00.104Z,101605.91
2023-01-10T18:02:30.396Z,101606.78
2023-01-10T18:05:00.775Z,101615.44
2023-01-10T18:07:30.940Z,101613.81
2023-01-10T18:10:01.212Z,101613.03
2023-01-10T18:12:31.320Z,101603.41
2023-01-10T18:15:01.726Z,101619.09
2023-01-10T18:17:32.286Z,101616.56
2023-01-10T18:20:02.409Z,101610.47
2023-01-10T18:22:51.342Z,101632.19
2023-01-10T18:25:21.508Z,101605.28
2023-01-10T18:27:52.557Z,101622.72
2023-01-10T18:30:23.507Z,101612.28
2023-01-10T18:32:54.251Z,101615.78
2023-01-10T18:35:24.601Z,101612.19
2023-01-10T18:37:56.168Z,101607.94
2023-01-10T18:40:29.306Z,101610.53
2023-01-10T18:42:59.467Z,101599.22
2023-01-10T18:45:30.781Z,101603.59
2023-01-10T18:48:02.522Z,101601.84
2023-01-10T18:50:32.767Z,101609.69
2023-01-10T18:53:03.711Z,101608.88
2023-01-10T18:55:34.095Z,101600.16
2023-01-10T18:58:04.235Z,101602.78
2023-01-10T19:00:34.408Z,101604.38
2023-01-10T19:03:04.805Z,101606.91
2023-01-10T19:05:35.023Z,101610.22
2023-01-10T19:08:06.699Z,101612.84
2023-01-10T19:10:57.269Z,101615.38
2023-01-10T19:13:27.268Z,101616.38
2023-01-10T19:16:20.008Z,101622.47
2023-01-10T19:18:53.452Z,101619.75
2023-01-10T19:21:25.750Z,101622.34
2023-01-10T19:23:56.771Z,101625.84
2023-01-10T19:26:27.081Z,101626.66
2023-01-10T19:28:57.457Z,101626.69
2023-01-10T19:31:29.446Z,101617.94
2023-01-10T19:34:01.030Z,101624.84
2023-01-10T19:36:34.948Z,101634.34
2023-01-10T19:39:07.168Z,101642.94
2023-01-10T19:41:38.933Z,101643.88
2023-01-10T19:44:14.003Z,101640.31
2023-01-10T19:46:45.658Z,101636.03
2023-01-10T19:49:19.543Z,101637.78
2023-01-10T19:51:55.692Z,101641.19
2023-01-10T19:54:25.756Z,101640.34
2023-01-10T19:56:56.744Z,101653.41
2023-01-10T19:59:28.074Z,101651.66
2023-01-10T20:01:58.458Z,101663.72
2023-01-10T20:04:28.759Z,101654.19
2023-01-10T20:06:59.321Z,101652.41
2023-01-10T20:09:29.770Z,101659.31
2023-01-10T20:11:59.961Z,101655.91
2023-01-10T20:14:30.513Z,101653.31
2023-01-10T20:17:01.466Z,101655.84
2023-01-10T20:19:31.592Z,101666.19
2023-01-10T20:22:01.785Z,101667.97
2023-01-10T20:24:32.185Z,101671.44
2023-01-10T20:27:06.644Z,101669.69
2023-01-10T20:29:42.942Z,101676.56
2023-01-10T20:32:17.258Z,101667.03
2023-01-10T20:34:49.812Z,101666.91
2023-01-10T20:37:20.006Z,101671.28
2023-01-10T20:39:50.531Z,101653.00
2023-01-10T20:42:20.885Z,101659.88
2023-01-10T20:44:51.039Z,101669.31
2023-01-10T20:47:23.310Z,101677.22
2023-01-10T20:49:53.410Z,101672.94
2023-01-10T20:52:23.592Z,101664.91
2023-01-10T20:54:53.912Z,101676.38
2023-01-10T20:57:24.142Z,101678.09
2023-01-10T20:59:54.256Z,101690.31
2023-01-10T21:02:24.596Z,101678.19
2023-01-10T21:04:54.774Z,101682.53
2023-01-10T21:07:25.070Z,101679.94
2023-01-10T21:09:55.185Z,101677.38
2023-01-10T21:12:27.674Z,101670.34
2023-01-10T21:14:58.076Z,101667.72
2023-01-10T21:17:28.234Z,101678.19
2023-01-10T21:19:58.360Z,101679.94
2023-01-10T21:22:28.964Z,101677.38
2023-01-10T21:24:59.251Z,101672.97
2023-01-10T21:27:31.458Z,101678.13
2023-01-10T21:30:01.905Z,101667.78
2023-01-10T21:32:32.728Z,101664.25
2023-01-10T21:35:03.287Z,101661.75
2023-01-10T21:37:33.445Z,101659.16
2023-01-10T21:40:04.788Z,101654.84
2023-01-10T21:42:34.933Z,101657.31
2023-01-10T21:45:07.115Z,101647.09
2023-01-10T21:47:38.589Z,101652.22
2023-01-10T21:50:12.150Z,101653.22
2023-01-10T21:52:42.922Z,101653.97
2023-01-10T21:55:15.421Z,101662.69
2023-01-10T21:57:45.674Z,101657.38
2023-01-10T22:00:16.462Z,101662.59
2023-01-10T22:02:47.889Z,101656.41
2023-01-10T22:05:18.641Z,101663.41
2023-01-10T22:07:48.913Z,101663.41
2023-01-10T22:10:19.517Z,101657.31
2023-01-10T22:12:49.824Z,101660.75
2023-01-10T22:15:20.909Z,101656.31
2023-01-10T22:17:51.407Z,101669.44
2023-01-10T22:20:21.795Z,101665.06
2023-01-10T22:22:51.917Z,101671.16
2023-01-10T22:25:22.139Z,101664.22
2023-01-10T22:27:53.582Z,101670.28
2023-01-10T22:30:23.846Z,101677.25
2023-01-10T22:32:57.621Z,101669.50
2023-01-10T22:35:28.011Z,101659.84
2023-01-10T22:37:58.143Z,101665.06
2023-01-10T22:40:28.251Z,101673.00
2023-01-10T22:42:58.375Z,101661.56
2023-01-10T22:45:31.601Z,101661.53
2023-01-10T22:48:01.800Z,101678.22
2023-01-10T22:50:32.607Z,101674.72
2023-01-10T22:53:03.443Z,101683.41
2023-01-10T22:55:34.600Z,101681.63
2023-01-10T22:58:04.891Z,101668.56
2023-01-10T23:00:35.181Z,101665.91
2023-01-10T23:03:05.333Z,101674.78
2023-01-10T23:05:35.516Z,101673.88
2023-01-10T23:08:05.855Z,101658.22
2023-01-10T23:10:36.008Z,101676.47
2023-01-10T23:13:07.474Z,101671.28
2023-01-10T23:15:37.600Z,101674.84
2023-01-10T23:18:07.921Z,101674.00
2023-01-10T23:20:38.119Z,101666.25
2023-01-10T23:23:08.295Z,101674.91
2023-01-10T23:25:38.374Z,101669.75
2023-01-10T23:28:09.210Z,101665.41
2023-01-10T23:30:39.451Z,101662.88
2023-01-10T23:33:09.589Z,101660.22
2023-01-10T23:35:39.696Z,101661.06
2023-01-10T23:38:09.842Z,101654.97
2023-01-10T23:40:40.103Z,101652.34
2023-01-10T23:43:10.359Z,101657.56
2023-01-10T23:45:40.606Z,101648.72
2023-01-10T23:48:11.515Z,101664.34
2023-01-10T23:50:41.738Z,101659.16
2023-01-10T23:53:12.232Z,101653.88
2023-01-10T23:55:43.249Z,101672.09
2023-01-10T23:58:13.673Z,101672.16
